Time;durP1;ratioP1;P1;durP2;ratioP2;P2;SDS_P1;SDS_P2;PMS_P1;PMS_P2;Temp;Humidity;BMP_temperature;BMP_pressure;BME280_temperature;BME280_humidity;BME280_pressure;Samples;Min_cycle;Max_cycle;Signal;HPM_P1;HPM_P2
2021/10/05 00:00:06;;;;;;;8.80;1.83;;;11.30;99.90;;;;;;5091633;28;20051;-69
2021/10/05 00:02:32;;;;;;;4.15;2.13;;;11.30;99.90;;;;;;5092828;28;20042;-69
2021/10/05 00:04:57;;;;;;;8.32;2.20;;;11.20;99.90;;;;;;5093013;28;20036;-69
2021/10/05 00:07:23;;;;;;;4.90;2.10;;;11.20;99.90;;;;;;5093157;28;20513;-69
2021/10/05 00:09:49;;;;;;;5.45;2.15;;;11.10;99.90;;;;;;5092680;28;20261;-68
2021/10/05 00:12:14;;;;;;;5.90;3.13;;;11.10;99.90;;;;;;5091936;28;20342;-68
2021/10/05 00:14:40;;;;;;;8.50;2.65;;;11.10;99.90;;;;;;5093088;28;20495;-68
2021/10/05 00:17:06;;;;;;;7.45;2.17;;;11.20;99.90;;;;;;5092860;28;20039;-68
2021/10/05 00:19:31;;;;;;;2.55;1.60;;;11.10;99.90;;;;;;5092602;28;20039;-68
2021/10/05 00:21:57;;;;;;;6.70;2.10;;;11.10;99.90;;;;;;5091574;28;20039;-68
2021/10/05 00:24:23;;;;;;;4.20;1.73;;;11.10;99.90;;;;;;5093078;28;20097;-68
2021/10/05 00:26:48;;;;;;;3.28;2.00;;;11.10;99.90;;;;;;5093278;28;20489;-68
2021/10/05 00:29:14;;;;;;;6.95;2.63;;;11.10;99.90;;;;;;5091221;28;20039;-69
2021/10/05 00:31:40;;;;;;;5.55;1.90;;;11.10;99.90;;;;;;5092911;28;20036;-68
2021/10/05 00:34:05;;;;;;;6.43;1.92;;;11.20;99.90;;;;;;5091689;28;20032;-68
2021/10/05 00:36:31;;;;;;;4.32;2.03;;;11.10;99.90;;;;;;5095778;28;20044;-68
2021/10/05 00:38:56;;;;;;;6.90;1.73;;;11.10;99.90;;;;;;5095966;28;20396;-68
2021/10/05 00:41:22;;;;;;;2.53;1.50;;;11.00;99.90;;;;;;5096506;28;20043;-68
2021/10/05 00:43:48;;;;;;;9.40;2.17;;;11.10;99.90;;;;;;5096701;28;20369;-69
2021/10/05 00:46:15;;;;;;;3.85;1.60;;;11.00;99.90;;;;;;5096608;28;20028;-69
2021/10/05 00:48:41;;;;;;;5.97;2.25;;;11.10;99.90;;;;;;5094602;28;20044;-68
2021/10/05 00:51:06;;;;;;;4.88;2.72;;;11.00;99.90;;;;;;5096090;28;20047;-68
2021/10/05 00:53:33;;;;;;;5.75;3.15;;;11.00;99.90;;;;;;5096557;28;20042;-68
2021/10/05 00:55:59;;;;;;;4.93;2.80;;;11.00;99.90;;;;;;5096303;28;20036;-69
2021/10/05 00:58:25;;;;;;;7.50;3.05;;;11.00;99.90;;;;;;5096295;28;20115;-69
2021/10/05 01:00:51;;;;;;;6.63;3.10;;;10.90;99.90;;;;;;5095949;28;20526;-69
2021/10/05 01:03:16;;;;;;;6.15;2.38;;;10.90;99.90;;;;;;5095955;28;20053;-68
2021/10/05 01:05:42;;;;;;;7.15;3.10;;;10.90;99.90;;;;;;5094724;28;20053;-69
2021/10/05 01:08:08;;;;;;;7.05;3.08;;;10.90;99.90;;;;;;5095080;28;20055;-68
2021/10/05 01:10:33;;;;;;;5.78;3.45;;;10.80;99.90;;;;;;5095681;28;20484;-69
2021/10/05 01:12:59;;;;;;;4.68;3.00;;;10.70;99.90;;;;;;5096120;28;20552;-68
2021/10/05 01:15:26;;;;;;;7.30;3.00;;;10.80;99.90;;;;;;5096130;28;20040;-69
2021/10/05 01:17:53;;;;;;;5.60;3.17;;;10.80;99.90;;;;;;5094566;28;20040;-69
2021/10/05 01:20:19;;;;;;;8.65;3.58;;;10.80;99.90;;;;;;5095852;28;20168;-68
2021/10/05 01:22:45;;;;;;;5.15;3.72;;;10.80;99.90;;;;;;5094748;28;20118;-69
2021/10/05 01:25:14;;;;;;;9.10;3.95;;;10.70;99.90;;;;;;5095591;28;20145;-69
2021/10/05 01:27:43;;;;;;;7.20;3.70;;;10.70;99.90;;;;;;5095671;28;20079;-68
2021/10/05 01:30:09;;;;;;;6.78;4.07;;;10.70;99.90;;;;;;5095034;28;20040;-68
2021/10/05 01:32:35;;;;;;;5.75;3.78;;;10.60;99.90;;;;;;5095369;28;20071;-69
2021/10/05 01:35:01;;;;;;;5.97;4.22;;;10.60;99.90;;;;;;5095396;28;20059;-68
2021/10/05 01:37:26;;;;;;;9.20;4.13;;;10.50;99.90;;;;;;5095341;28;20389;-69
2021/10/05 01:39:52;;;;;;;9.52;4.20;;;10.50;99.90;;;;;;5093670;28;20165;-69
2021/10/05 01:42:17;;;;;;;5.95;3.30;;;10.50;99.90;;;;;;5095127;28;20036;-69
2021/10/05 01:44:44;;;;;;;9.43;4.10;;;10.50;99.90;;;;;;5095717;28;20043;-68
2021/10/05 01:47:10;;;;;;;7.80;4.20;;;10.50;99.90;;;;;;5094405;28;20568;-68
2021/10/05 01:49:37;;;;;;;6.13;3.67;;;10.50;99.90;;;;;;5094978;28;20400;-68
2021/10/05 01:52:04;;;;;;;6.05;4.20;;;10.50;99.90;;;;;;5095318;28;20495;-68
2021/10/05 01:54:30;;;;;;;6.97;3.97;;;10.50;99.90;;;;;;5095537;28;20357;-68
2021/10/05 01:56:56;;;;;;;8.07;4.65;;;10.50;99.90;;;;;;5095383;28;20051;-68
2021/10/05 01:59:21;;;;;;;7.13;4.78;;;10.40;99.90;;;;;;5094562;28;20401;-68
2021/10/05 02:01:47;;;;;;;6.38;4.38;;;10.40;99.90;;;;;;5094785;28;20467;-68
2021/10/05 02:04:13;;;;;;;7.00;3.60;;;10.40;99.90;;;;;;5094753;28;20105;-68
2021/10/05 02:06:41;;;;;;;9.07;4.60;;;10.40;99.90;;;;;;5094770;28;20040;-68
2021/10/05 02:09:08;;;;;;;6.97;4.22;;;10.30;99.90;;;;;;5094251;28;20557;-68
2021/10/05 02:11:34;;;;;;;7.70;4.88;;;10.30;99.90;;;;;;5094535;28;20077;-68
2021/10/05 02:14:00;;;;;;;8.57;4.88;;;10.30;99.90;;;;;;5094641;28;20048;-68
2021/10/05 02:16:26;;;;;;;7.35;4.70;;;10.20;99.90;;;;;;5094501;28;20062;-68
2021/10/05 02:18:52;;;;;;;7.25;4.53;;;10.30;99.90;;;;;;5094227;28;20373;-69
2021/10/05 02:21:18;;;;;;;8.48;4.45;;;10.30;99.90;;;;;;5094356;28;20046;-68
2021/10/05 02:26:30;;;;;;;6.95;4.65;;;10.30;99.90;;;;;;5094935;28;20119;-68
2021/10/05 02:28:56;;;;;;;8.25;4.55;;;10.20;99.90;;;;;;5093923;28;20044;-68
2021/10/05 02:31:22;;;;;;;11.13;4.97;;;10.20;99.90;;;;;;5093440;28;20400;-68
2021/10/05 02:33:48;;;;;;;7.93;5.22;;;10.20;99.90;;;;;;5094395;28;20039;-69
2021/10/05 02:36:14;;;;;;;7.22;5.05;;;10.30;99.90;;;;;;5094302;28;20071;-68
2021/10/05 02:38:39;;;;;;;9.63;6.03;;;10.10;99.90;;;;;;5092671;28;20122;-69
2021/10/05 02:41:05;;;;;;;8.13;5.75;;;10.20;99.90;;;;;;5094026;28;20078;-68
2021/10/05 02:43:31;;;;;;;7.93;5.43;;;10.20;99.90;;;;;;5094732;28;20384;-68
2021/10/05 02:45:56;;;;;;;7.45;5.13;;;10.20;99.90;;;;;;5094412;28;20046;-68
2021/10/05 02:48:22;;;;;;;6.70;5.63;;;10.10;99.90;;;;;;5093866;28;20043;-69
2021/10/05 02:50:48;;;;;;;10.65;5.45;;;10.10;99.90;;;;;;5093973;28;20419;-68
2021/10/05 02:53:13;;;;;;;10.85;6.00;;;10.10;99.90;;;;;;5093839;28;20036;-68
2021/10/05 02:55:40;;;;;;;8.10;5.40;;;10.10;99.90;;;;;;5093860;28;20075;-68
2021/10/05 02:58:06;;;;;;;7.82;5.43;;;10.20;99.90;;;;;;5093459;28;20551;-68
2021/10/05 03:00:32;;;;;;;8.32;5.63;;;10.10;99.90;;;;;;5093042;28;20051;-68
2021/10/05 03:02:58;;;;;;;7.10;5.65;;;10.10;99.90;;;;;;5093706;28;20032;-68
2021/10/05 03:05:24;;;;;;;5.57;4.90;;;10.10;99.90;;;;;;5093608;28;20032;-68
2021/10/05 03:07:49;;;;;;;6.50;5.68;;;10.10;99.90;;;;;;5093745;28;20571;-68
2021/10/05 03:10:15;;;;;;;8.60;6.35;;;10.00;99.90;;;;;;5093648;28;20032;-68
2021/10/05 03:12:40;;;;;;;8.60;5.50;;;10.10;99.90;;;;;;5093476;28;20089;-69
2021/10/05 03:15:06;;;;;;;7.82;5.85;;;10.00;99.90;;;;;;5093460;28;20040;-69
2021/10/05 03:17:32;;;;;;;8.73;5.65;;;10.10;99.90;;;;;;5093315;28;20043;-68
2021/10/05 03:19:57;;;;;;;7.13;5.78;;;10.00;99.90;;;;;;5075465;28;20035;-69
2021/10/05 03:22:23;;;;;;;7.03;6.00;;;10.10;99.90;;;;;;5093440;28;20502;-69
2021/10/05 03:24:48;;;;;;;5.70;5.07;;;10.10;99.90;;;;;;5093426;28;20085;-69
2021/10/05 03:27:14;;;;;;;9.38;6.00;;;10.10;99.90;;;;;;5093391;28;20043;-69
2021/10/05 03:29:40;;;;;;;10.88;6.50;;;10.00;99.90;;;;;;5092861;28;20123;-69
2021/10/05 03:32:06;;;;;;;9.48;5.90;;;10.00;99.90;;;;;;5091888;28;20040;-68
2021/10/05 03:34:32;;;;;;;9.18;5.97;;;10.10;99.90;;;;;;5093219;28;20123;-69
2021/10/05 03:36:58;;;;;;;8.43;5.82;;;10.10;99.90;;;;;;5093373;28;20123;-69
2021/10/05 03:39:23;;;;;;;8.85;6.60;;;10.10;99.90;;;;;;5092930;28;20408;-69
2021/10/05 03:41:49;;;;;;;12.00;6.13;;;10.00;99.90;;;;;;5093196;28;20047;-69
2021/10/05 03:44:15;;;;;;;8.13;5.60;;;10.00;99.90;;;;;;5092088;28;20047;-69
2021/10/05 03:46:41;;;;;;;8.30;6.75;;;10.10;99.90;;;;;;5093568;28;20496;-69
2021/10/05 03:49:06;;;;;;;12.32;6.05;;;10.00;99.90;;;;;;5092721;28;20040;-69
2021/10/05 03:51:32;;;;;;;9.27;6.07;;;10.10;99.90;;;;;;5093081;28;20115;-69
2021/10/05 03:53:58;;;;;;;7.03;5.18;;;10.00;99.90;;;;;;5093411;28;20036;-69
2021/10/05 03:56:23;;;;;;;8.57;6.13;;;10.10;99.90;;;;;;5093033;28;20040;-69
2021/10/05 03:58:49;;;;;;;9.60;6.82;;;10.10;99.90;;;;;;5091520;28;20047;-69
2021/10/05 04:01:15;;;;;;;7.68;6.25;;;10.10;99.90;;;;;;5091613;28;20043;-70
2021/10/05 04:03:41;;;;;;;7.80;5.72;;;10.00;99.90;;;;;;5093156;28;20044;-70
2021/10/05 04:06:08;;;;;;;9.90;7.10;;;10.10;99.90;;;;;;5092764;28;20079;-70
2021/10/05 04:08:34;;;;;;;7.93;6.50;;;10.00;99.90;;;;;;5092416;28;20051;-70
2021/10/05 04:11:01;;;;;;;8.15;5.80;;;10.00;99.90;;;;;;5095398;28;20040;-69
2021/10/05 04:13:26;;;;;;;9.60;5.90;;;10.00;99.90;;;;;;5097112;28;20110;-69
2021/10/05 04:15:52;;;;;;;10.40;6.38;;;10.00;99.90;;;;;;5096762;28;20120;-69
2021/10/05 04:18:18;;;;;;;9.15;6.70;;;10.00;99.90;;;;;;5095689;28;20036;-69
2021/10/05 04:20:43;;;;;;;8.98;5.82;;;10.00;99.90;;;;;;5096637;28;20054;-69
2021/10/05 04:23:09;;;;;;;12.27;6.30;;;10.00;99.90;;;;;;5096565;28;20048;-69
2021/10/05 04:25:35;;;;;;;7.57;5.88;;;10.00;99.90;;;;;;5096679;28;20036;-69
2021/10/05 04:28:00;;;;;;;8.88;6.03;;;10.00;99.90;;;;;;5096642;28;20032;-69
2021/10/05 04:30:26;;;;;;;7.90;6.50;;;9.90;99.90;;;;;;5094884;28;20428;-69
2021/10/05 04:32:51;;;;;;;9.15;6.20;;;9.90;99.90;;;;;;5096725;28;20036;-69
2021/10/05 04:35:17;;;;;;;9.63;5.95;;;10.00;99.90;;;;;;5096554;28;20075;-69
2021/10/05 04:37:43;;;;;;;9.93;6.75;;;9.90;99.90;;;;;;5096614;28;20392;-69
2021/10/05 04:40:09;;;;;;;8.10;5.78;;;10.00;99.90;;;;;;5096081;28;20169;-69
2021/10/05 04:42:35;;;;;;;9.45;6.57;;;10.00;99.90;;;;;;5096323;28;20066;-69
2021/10/05 04:45:00;;;;;;;10.52;6.63;;;10.00;99.90;;;;;;5096410;28;20036;-69
2021/10/05 04:47:26;;;;;;;8.00;6.43;;;10.00;99.90;;;;;;5096463;28;20503;-69
2021/10/05 04:49:52;;;;;;;9.07;6.28;;;10.00;99.90;;;;;;5077697;28;20048;-69
2021/10/05 04:52:17;;;;;;;10.10;6.28;;;9.90;99.90;;;;;;5094981;28;20085;-70
2021/10/05 04:54:43;;;;;;;9.20;6.72;;;10.00;99.90;;;;;;5094864;28;20044;-69
2021/10/05 04:57:09;;;;;;;8.60;5.82;;;10.00;99.90;;;;;;5095064;28;20036;-69
2021/10/05 04:59:35;;;;;;;9.02;6.43;;;10.00;99.90;;;;;;5095774;28;20115;-69
2021/10/05 05:02:00;;;;;;;9.05;6.05;;;10.00;99.90;;;;;;5094925;28;20070;-70
2021/10/05 05:04:26;;;;;;;9.68;6.28;;;9.90;99.90;;;;;;5096127;28;20452;-70
2021/10/05 05:06:52;;;;;;;14.45;7.28;;;9.90;99.90;;;;;;5095030;28;20119;-70
2021/10/05 05:09:17;;;;;;;9.98;6.72;;;9.90;99.90;;;;;;5095489;28;20119;-70
2021/10/05 05:11:43;;;;;;;8.63;6.53;;;9.90;99.90;;;;;;5096196;28;20040;-69
2021/10/05 05:14:12;;;;;;;9.43;7.03;;;9.90;99.90;;;;;;5096435;28;20446;-70
2021/10/05 05:16:39;;;;;;;8.85;6.32;;;9.90;99.90;;;;;;5094736;28;20051;-70
2021/10/05 05:19:06;;;;;;;9.98;6.25;;;9.90;99.90;;;;;;5094315;28;20119;-70
2021/10/05 05:21:33;;;;;;;9.32;6.55;;;9.90;99.90;;;;;;5094497;28;20048;-70
2021/10/05 05:23:59;;;;;;;9.93;6.88;;;9.90;99.90;;;;;;5095912;28;20123;-70
2021/10/05 05:26:25;;;;;;;9.60;6.57;;;9.90;99.90;;;;;;5095574;28;20040;-70
2021/10/05 05:28:51;;;;;;;8.70;6.50;;;9.90;99.90;;;;;;5095096;28;20093;-70
2021/10/05 05:31:17;;;;;;;10.70;7.35;;;9.80;99.90;;;;;;5095363;28;20032;-69
2021/10/05 05:33:43;;;;;;;9.20;6.65;;;9.90;99.90;;;;;;5095589;28;20392;-70
2021/10/05 05:36:09;;;;;;;8.93;7.07;;;9.90;99.90;;;;;;5095512;28;20126;-70
2021/10/05 05:38:34;;;;;;;8.30;6.70;;;9.80;99.90;;;;;;5094919;28;20062;-71
2021/10/05 05:41:00;;;;;;;10.45;6.85;;;9.90;99.90;;;;;;5095143;28;20547;-70
2021/10/05 05:43:26;;;;;;;10.75;7.68;;;9.90;99.90;;;;;;5095316;28;20385;-70
2021/10/05 05:45:51;;;;;;;9.13;6.70;;;9.90;99.90;;;;;;5094263;28;20113;-70
2021/10/05 05:48:17;;;;;;;9.18;6.63;;;9.90;99.90;;;;;;5095343;28;20032;-70
2021/10/05 05:50:43;;;;;;;9.32;6.65;;;9.90;99.90;;;;;;5093418;28;20085;-70
2021/10/05 05:53:08;;;;;;;11.13;7.97;;;10.00;99.90;;;;;;5095258;28;20562;-70
2021/10/05 05:55:34;;;;;;;16.55;7.25;;;10.00;99.90;;;;;;5094824;28;20040;-70
2021/10/05 05:58:08;;;;;;;10.70;7.50;;;10.00;99.90;;;;;;5095402;28;20059;-70
2021/10/05 06:00:34;;;;;;;11.48;7.20;;;10.00;99.90;;;;;;5094850;28;20047;-70
2021/10/05 06:02:59;;;;;;;9.68;7.22;;;10.00;99.90;;;;;;5093567;28;20076;-70
2021/10/05 06:05:25;;;;;;;9.43;7.07;;;10.00;99.90;;;;;;5095324;28;20085;-70
2021/10/05 06:07:50;;;;;;;8.90;7.22;;;10.00;99.90;;;;;;5094886;28;20050;-70
2021/10/05 06:10:16;;;;;;;12.30;6.80;;;10.00;99.90;;;;;;5093417;28;20119;-70
2021/10/05 06:12:42;;;;;;;10.52;7.22;;;10.00;99.90;;;;;;5093568;28;20043;-70
2021/10/05 06:15:11;;;;;;;12.05;7.10;;;10.10;99.90;;;;;;5094868;28;20400;-70
2021/10/05 06:17:39;;;;;;;12.07;7.32;;;10.10;99.90;;;;;;5094422;28;20040;-70
2021/10/05 06:20:13;;;;;;;8.38;6.95;;;10.10;99.90;;;;;;5094542;28;20033;-70
2021/10/05 06:22:40;;;;;;;8.98;7.05;;;10.10;99.90;;;;;;5094532;28;20051;-70
2021/10/05 06:25:09;;;;;;;8.77;6.97;;;10.10;99.90;;;;;;5094529;28;20040;-70
2021/10/05 06:27:34;;;;;;;9.82;7.43;;;10.10;99.90;;;;;;5093039;28;20044;-70
2021/10/05 06:30:00;;;;;;;8.88;7.22;;;10.10;99.90;;;;;;5094063;28;20385;-70
2021/10/05 06:32:26;;;;;;;11.55;8.02;;;10.10;99.90;;;;;;5093368;28;20071;-70
2021/10/05 06:34:52;;;;;;;13.75;6.38;;;10.10;99.90;;;;;;5093654;28;20516;-68
2021/10/05 06:37:18;;;;;;;11.10;7.60;;;10.20;99.90;;;;;;5094466;28;20036;-69
2021/10/05 06:39:44;;;;;;;8.70;7.28;;;10.20;99.90;;;;;;5094054;28;20036;-69
2021/10/05 06:42:09;;;;;;;8.70;6.55;;;10.20;99.90;;;;;;5094456;28;20045;-69
2021/10/05 06:44:35;;;;;;;9.25;6.60;;;10.30;99.90;;;;;;5092968;28;20100;-69
2021/10/05 06:47:01;;;;;;;11.73;7.38;;;10.40;99.90;;;;;;5094708;28;20044;-69
2021/10/05 06:49:27;;;;;;;10.15;6.65;;;10.50;99.90;;;;;;5093817;28;20075;-69
2021/10/05 06:51:53;;;;;;;10.98;7.63;;;10.70;99.90;;;;;;5092609;28;20036;-69
2021/10/05 06:54:18;;;;;;;10.63;6.75;;;10.80;99.90;;;;;;5093936;28;20396;-69
2021/10/05 06:56:44;;;;;;;11.35;6.25;;;11.00;99.90;;;;;;5094100;28;20032;-69
2021/10/05 06:59:09;;;;;;;8.38;6.38;;;11.10;99.90;;;;;;5093766;28;20438;-69
2021/10/05 07:01:35;;;;;;;10.45;6.72;;;11.30;99.90;;;;;;5094065;28;20040;-70
2021/10/05 07:04:01;;;;;;;8.43;6.28;;;11.50;99.90;;;;;;5092470;28;20043;-69
2021/10/05 07:06:27;;;;;;;9.48;5.78;;;11.70;99.90;;;;;;5093785;28;20167;-69
2021/10/05 07:08:52;;;;;;;9.48;6.88;;;11.80;99.90;;;;;;5093302;28;20047;-69
2021/10/05 07:11:18;;;;;;;8.70;6.45;;;11.80;99.90;;;;;;5092422;28;20047;-70
2021/10/05 07:13:43;;;;;;;10.95;6.43;;;11.90;99.90;;;;;;5092600;28;20101;-70
2021/10/05 07:16:10;;;;;;;7.10;5.80;;;12.00;99.90;;;;;;5093608;28;20040;-70
2021/10/05 07:18:35;;;;;;;8.75;6.43;;;12.10;99.90;;;;;;5093219;28;20039;-69
2021/10/05 07:21:02;;;;;;;6.72;5.35;;;12.20;99.90;;;;;;5093562;28;20036;-70
2021/10/05 07:23:28;;;;;;;7.75;5.60;;;12.30;99.90;;;;;;5092499;28;20040;-69
2021/10/05 07:25:53;;;;;;;9.02;5.60;;;12.40;99.90;;;;;;5093697;28;20032;-70
2021/10/05 07:28:19;;;;;;;7.40;5.32;;;12.50;99.90;;;;;;5093592;28;20047;-69
2021/10/05 07:30:46;;;;;;;7.63;5.93;;;12.70;99.90;;;;;;5092998;28;20512;-70
2021/10/05 07:33:12;;;;;;;6.60;5.13;;;12.70;99.90;;;;;;5093465;28;20078;-70
2021/10/05 07:35:37;;;;;;;9.63;6.25;;;12.80;99.90;;;;;;5092152;28;20065;-70
2021/10/05 07:38:04;;;;;;;8.48;6.00;;;12.80;99.90;;;;;;5093247;28;20032;-69
2021/10/05 07:40:30;;;;;;;7.53;5.72;;;13.10;99.90;;;;;;5078600;28;20051;-69
2021/10/05 07:42:57;;;;;;;11.93;5.85;;;13.30;99.90;;;;;;5073112;28;20126;-70
2021/10/05 07:45:24;;;;;;;7.78;5.72;;;13.20;99.90;;;;;;5072501;28;20120;-69
2021/10/05 07:47:50;;;;;;;7.53;5.28;;;13.20;99.90;;;;;;5073368;28;20053;-68
2021/10/05 07:50:16;;;;;;;7.60;4.80;;;13.20;99.90;;;;;;5072661;28;20082;-69
2021/10/05 07:52:42;;;;;;;8.25;5.30;;;13.20;99.90;;;;;;5071831;28;20124;-70
2021/10/05 07:55:08;;;;;;;9.55;5.55;;;13.30;99.90;;;;;;5073029;28;20075;-70
2021/10/05 07:57:34;;;;;;;8.55;5.78;;;13.30;99.90;;;;;;5070412;28;20040;-70
2021/10/05 07:59:59;;;;;;;8.93;5.65;;;13.30;99.90;;;;;;5071218;28;20052;-70
2021/10/05 08:02:25;;;;;;;10.23;5.40;;;13.40;99.90;;;;;;5071725;28;20123;-70
2021/10/05 08:04:52;;;;;;;9.07;5.15;;;13.30;99.90;;;;;;5073062;28;20040;-70
2021/10/05 08:07:18;;;;;;;6.30;5.47;;;13.40;99.90;;;;;;5071602;28;20056;-70
2021/10/05 08:09:44;;;;;;;6.78;5.53;;;13.30;99.90;;;;;;5072539;28;20044;-70
2021/10/05 08:12:09;;;;;;;8.52;5.50;;;13.50;99.90;;;;;;5072848;28;20115;-70
2021/10/05 08:14:35;;;;;;;7.32;5.15;;;13.50;99.90;;;;;;5072707;28;20041;-70
2021/10/05 08:17:03;;;;;;;6.15;5.50;;;13.60;99.90;;;;;;5072706;28;20036;-70
2021/10/05 08:19:29;;;;;;;6.88;5.43;;;13.40;99.90;;;;;;5071116;28;20488;-70
2021/10/05 08:21:54;;;;;;;6.32;5.10;;;13.10;99.90;;;;;;5072921;28;20044;-70
2021/10/05 08:24:22;;;;;;;7.80;5.63;;;13.10;99.90;;;;;;5071452;28;20445;-70
2021/10/05 08:26:47;;;;;;;9.57;5.63;;;13.00;99.90;;;;;;5071511;28;20047;-70
2021/10/05 08:29:13;;;;;;;7.43;5.50;;;12.80;99.90;;;;;;5072633;28;20095;-69
2021/10/05 08:31:39;;;;;;;11.05;6.95;;;12.70;99.90;;;;;;5072411;28;20033;-70
2021/10/05 08:34:04;;;;;;;7.68;5.60;;;12.60;99.90;;;;;;5071544;28;20045;-70
2021/10/05 08:36:30;;;;;;;8.65;5.97;;;12.60;99.90;;;;;;5072843;28;20040;-70
2021/10/05 08:38:55;;;;;;;6.60;5.75;;;12.60;99.90;;;;;;5072452;28;20134;-70
2021/10/05 08:41:22;;;;;;;8.35;5.90;;;12.60;99.90;;;;;;5072620;28;20048;-70
2021/10/05 08:43:50;;;;;;;7.10;5.68;;;12.70;99.90;;;;;;5072982;28;20037;-70
2021/10/05 08:46:16;;;;;;;7.70;6.28;;;12.70;99.90;;;;;;5072807;28;20044;-70
2021/10/05 08:48:42;;;;;;;10.35;6.40;;;12.70;99.90;;;;;;5071167;28;20048;-70
2021/10/05 08:51:08;;;;;;;8.32;6.55;;;12.80;99.90;;;;;;5073001;28;20043;-70
2021/10/05 08:53:37;;;;;;;8.98;5.32;;;12.80;99.90;;;;;;5072237;28;20515;-70
2021/10/05 08:56:05;;;;;;;6.25;5.63;;;12.90;99.90;;;;;;5072609;28;20136;-70
2021/10/05 08:58:31;;;;;;;8.35;6.85;;;12.90;99.90;;;;;;5074979;28;20044;-71
2021/10/05 09:01:16;;;;;;;8.32;6.03;;;12.90;99.90;;;;;;5075839;28;20443;-70
2021/10/05 09:03:49;;;;;;;7.00;5.78;;;13.00;99.90;;;;;;5075792;28;20592;-70
2021/10/05 09:06:15;;;;;;;;;;;13.00;99.90;;;;;;5074773;28;20036;-68
2021/10/05 09:08:43;;;;;;;9.32;6.38;;;13.30;99.90;;;;;;5074921;28;20457;-67
2021/10/05 09:11:10;;;;;;;9.10;6.65;;;13.40;99.90;;;;;;5075146;28;20392;-68
2021/10/05 09:13:41;;;;;;;8.27;5.70;;;13.50;99.90;;;;;;5076356;28;20033;-68
2021/10/05 09:16:29;;;;;;;8.48;6.38;;;13.60;99.90;;;;;;5074219;28;20036;-68
2021/10/05 09:18:55;;;;;;;9.80;6.50;;;13.50;99.90;;;;;;5075466;28;20496;-70
2021/10/05 09:21:21;;;;;;;7.57;5.75;;;13.50;99.90;;;;;;5075388;28;20124;-68
2021/10/05 09:23:56;;;;;;;7.68;5.68;;;13.50;99.90;;;;;;5075975;28;20037;-69
2021/10/05 09:26:39;;;;;;;6.88;6.07;;;13.60;99.90;;;;;;5075582;28;20062;-68
2021/10/05 09:29:20;;;;;;;8.13;6.28;;;13.50;99.90;;;;;;5073700;28;20051;-68
2021/10/05 09:32:01;;;;;;;6.68;5.25;;;13.50;99.90;;;;;;5074211;28;20036;-68
2021/10/05 09:34:44;;;;;;;8.38;6.32;;;13.60;99.90;;;;;;5075176;28;20389;-68
2021/10/05 09:37:20;;;;;;;8.65;6.13;;;13.60;99.90;;;;;;5074265;28;20091;-68
2021/10/05 09:39:52;;;;;;;10.45;6.70;;;13.60;99.90;;;;;;5074828;28;20489;-68
2021/10/05 09:42:36;;;;;;;7.18;6.10;;;13.70;99.90;;;;;;5075346;28;20152;-68
2021/10/05 09:45:16;;;;;;;10.27;7.13;;;13.80;99.90;;;;;;5075025;28;20044;-69
2021/10/05 09:47:46;;;;;;;9.18;7.22;;;13.80;99.90;;;;;;5073678;28;20040;-69
2021/10/05 09:50:26;;;;;;;7.70;6.47;;;13.90;99.90;;;;;;5073477;28;20037;-67
2021/10/05 09:52:54;;;;;;;8.02;6.60;;;14.00;99.90;;;;;;5074772;28;20041;-68
2021/10/05 09:55:23;;;;;;;9.27;6.93;;;14.00;99.90;;;;;;5074663;28;20036;-68
2021/10/05 09:57:49;;;;;;;12.98;6.53;;;14.10;99.90;;;;;;5074933;28;20036;-68
2021/10/05 10:00:16;;;;;;;10.25;6.72;;;14.00;99.90;;;;;;5074501;28;20044;-67
2021/10/05 10:02:43;;;;;;;8.57;7.07;;;14.10;99.90;;;;;;5074951;28;20072;-69
2021/10/05 10:05:15;;;;;;;7.25;6.13;;;14.30;99.90;;;;;;5074760;28;20132;-68
2021/10/05 10:07:43;;;;;;;7.82;6.65;;;14.50;99.90;;;;;;5074172;28;20396;-68
2021/10/05 10:10:12;;;;;;;8.15;7.35;;;14.40;99.90;;;;;;5074702;28;20086;-67
2021/10/05 10:12:51;;;;;;;6.80;6.00;;;14.50;99.90;;;;;;5074764;28;20484;-67
2021/10/05 10:15:18;;;;;;;7.78;6.35;;;14.50;99.90;;;;;;5074620;28;20047;-68
2021/10/05 10:17:44;;;;;;;8.20;6.10;;;14.50;99.90;;;;;;5074454;28;20064;-65
2021/10/05 10:20:25;;;;;;;8.55;6.05;;;14.70;99.90;;;;;;5074063;28;20507;-65
2021/10/05 10:22:51;;;;;;;6.43;5.80;;;14.80;99.90;;;;;;5073425;28;20089;-65
2021/10/05 10:25:28;;;;;;;8.70;6.90;;;14.90;99.90;;;;;;5074500;28;20044;-65
2021/10/05 10:27:57;;;;;;;9.45;5.65;;;15.10;99.90;;;;;;5073521;28;20051;-65
2021/10/05 10:30:27;;;;;;;8.18;5.22;;;15.20;99.90;;;;;;5073042;28;20115;-66
2021/10/05 10:33:03;;;;;;;7.35;5.05;;;15.30;99.90;;;;;;5074045;28;20048;-66
2021/10/05 10:35:29;;;;;;;6.57;4.63;;;15.40;99.90;;;;;;5074133;28;20071;-67
2021/10/05 10:37:56;;;;;;;8.60;4.68;;;15.50;99.90;;;;;;5074248;28;20036;-66
2021/10/05 10:40:37;;;;;;;6.10;4.35;;;15.50;99.90;;;;;;5073845;28;20045;-65
2021/10/05 10:43:11;;;;;;;5.05;3.90;;;15.60;99.90;;;;;;5073878;28;20047;-68
2021/10/05 10:45:54;;;;;;;5.38;4.15;;;15.60;99.90;;;;;;5073993;28;20105;-66
2021/10/05 10:48:37;;;;;;;7.78;4.03;;;15.70;99.90;;;;;;5072284;28;20069;-66
2021/10/05 10:51:18;;;;;;;4.63;3.88;;;15.80;99.90;;;;;;5073959;28;20041;-65
2021/10/05 10:53:45;;;;;;;8.00;3.33;;;15.90;99.90;;;;;;5073948;28;20036;-66
2021/10/05 10:56:15;;;;;;;4.32;3.22;;;15.90;99.90;;;;;;5073672;28;20036;-65
2021/10/05 10:58:44;;;;;;;4.72;3.80;;;15.90;99.90;;;;;;5072187;28;20111;-65
2021/10/05 11:01:14;;;;;;;8.38;3.55;;;16.00;99.90;;;;;;5073453;28;20036;-66
2021/10/05 11:03:40;;;;;;;4.50;2.95;;;16.10;99.90;;;;;;5073489;28;20051;-65
2021/10/05 11:06:16;;;;;;;4.18;2.55;;;16.20;99.90;;;;;;5072399;28;20037;-66
2021/10/05 11:08:56;;;;;;;5.20;3.13;;;16.30;99.90;;;;;;5073231;28;20107;-66
2021/10/05 11:11:34;;;;;;;4.60;2.55;;;16.40;99.90;;;;;;5071985;28;20044;-66
2021/10/05 11:14:01;;;;;;;3.35;2.25;;;16.40;99.90;;;;;;5073685;28;20456;-66
2021/10/05 11:16:29;;;;;;;5.47;2.42;;;16.50;99.90;;;;;;5071682;28;20489;-65
2021/10/05 11:19:16;;;;;;;4.43;2.58;;;16.60;99.90;;;;;;5071845;28;20052;-66
2021/10/05 11:21:44;;;;;;;4.05;2.17;;;16.70;99.90;;;;;;5072708;28;20037;-66
2021/10/05 11:24:14;;;;;;;7.82;2.63;;;16.70;99.90;;;;;;5071799;28;20148;-66
2021/10/05 11:26:45;;;;;;;2.35;2.10;;;16.70;99.90;;;;;;5071896;28;20060;-66
2021/10/05 11:29:12;;;;;;;3.90;2.42;;;16.80;99.90;;;;;;5071699;28;20055;-66
2021/10/05 11:31:49;;;;;;;4.30;2.05;;;16.80;99.90;;;;;;5073485;28;20064;-66
2021/10/05 11:34:17;;;;;;;4.60;2.10;;;16.90;99.90;;;;;;5073418;28;20047;-65
2021/10/05 11:36:43;;;;;;;5.38;2.00;;;16.80;99.90;;;;;;5073560;28;20058;-65
2021/10/05 11:39:17;;;;;;;4.82;2.33;;;16.90;99.90;;;;;;5072891;28;20161;-65
2021/10/05 11:41:43;;;;;;;6.00;2.13;;;16.90;99.90;;;;;;5072093;28;20047;-65
2021/10/05 11:44:16;;;;;;;5.13;2.17;;;16.80;99.90;;;;;;5073380;28;20041;-66
2021/10/05 11:47:06;;;;;;;5.18;2.38;;;16.80;99.90;;;;;;5073217;28;20543;-66
2021/10/05 11:49:34;;;;;;;3.65;1.95;;;16.90;99.90;;;;;;5072692;28;20037;-66
2021/10/05 11:52:01;;;;;;;2.90;1.85;;;16.90;99.90;;;;;;5073025;28;20047;-66
2021/10/05 11:54:29;;;;;;;4.60;1.65;;;16.80;99.90;;;;;;5072988;28;20040;-66
2021/10/05 11:56:57;;;;;;;2.80;1.95;;;16.80;99.90;;;;;;5073185;28;20037;-66
2021/10/05 11:59:24;;;;;;;6.05;2.30;;;16.90;99.90;;;;;;5072638;28;20445;-66
2021/10/05 12:01:56;;;;;;;3.60;2.30;;;16.90;99.90;;;;;;5072670;28;20049;-66
2021/10/05 12:04:23;;;;;;;3.35;1.75;;;16.90;99.90;;;;;;5072717;28;20040;-66
2021/10/05 12:07:01;;;;;;;5.25;1.90;;;17.00;99.90;;;;;;5072367;28;20189;-65
2021/10/05 12:09:28;;;;;;;3.63;1.70;;;17.00;99.90;;;;;;5072649;28;20098;-68
2021/10/05 12:12:07;;;;;;;6.50;2.00;;;17.10;99.90;;;;;;5071594;28;20029;-66
2021/10/05 12:14:40;;;;;;;3.85;1.70;;;17.00;99.70;;;;;;5072809;28;20064;-67
2021/10/05 12:17:12;;;;;;;3.97;1.83;;;17.00;99.90;;;;;;5072632;28;20032;-67
2021/10/05 12:19:42;;;;;;;3.78;1.83;;;17.00;99.90;;;;;;5072233;28;20051;-67
2021/10/05 12:22:08;;;;;;;2.63;1.83;;;17.10;99.90;;;;;;5072242;28;20088;-67
2021/10/05 12:24:38;;;;;;;4.72;1.58;;;17.10;99.90;;;;;;5073096;28;20044;-67
2021/10/05 12:27:05;;;;;;;3.92;1.30;;;17.00;99.90;;;;;;5072621;28;20494;-67
2021/10/05 12:29:32;;;;;;;8.38;1.92;;;17.10;99.90;;;;;;5072480;28;20080;-67
2021/10/05 12:31:59;;;;;;;5.25;1.75;;;17.30;99.40;;;;;;5073826;28;20040;-67
2021/10/05 12:34:36;;;;;;;4.15;1.70;;;17.30;99.90;;;;;;5076582;28;20051;-68
2021/10/05 12:37:05;;;;;;;3.78;1.55;;;17.30;99.80;;;;;;5075826;28;20044;-67
2021/10/05 12:39:31;;;;;;;4.55;1.60;;;17.30;99.90;;;;;;5076151;28;20516;-67
2021/10/05 12:42:03;;;;;;;3.67;1.50;;;17.40;99.90;;;;;;5075008;28;20048;-67
2021/10/05 12:44:33;;;;;;;2.67;1.38;;;17.40;99.90;;;;;;5076383;28;20056;-67
2021/10/05 12:47:01;;;;;;;3.92;1.58;;;17.50;99.90;;;;;;5076180;28;20382;-67
2021/10/05 12:49:27;;;;;;;4.95;1.38;;;17.60;99.90;;;;;;5075688;28;20504;-67